sensor_id;sensor_type;location;lat;lon;timestamp;P1;durP1;ratioP1;P2;durP2;ratioP2
37349;SDS011;23231;52.358;4.926;2023-05-16T00:01:48;12.68;;;2.80;;
37349;SDS011;23231;52.358;4.926;2023-05-16T00:06:48;12.27;;;2.03;;
37349;SDS011;23231;52.358;4.926;2023-05-16T00:11:49;12.70;;;2.15;;
37349;SDS011;23231;52.358;4.926;2023-05-16T00:16:49;8.65;;;2.08;;
37349;SDS011;23231;52.358;4.926;2023-05-16T00:21:50;13.68;;;2.58;;
37349;SDS011;23231;52.358;4.926;2023-05-16T00:26:50;13.15;;;3.22;;
37349;SDS011;23231;52.358;4.926;2023-05-16T00:31:51;13.05;;;2.38;;
37349;SDS011;23231;52.358;4.926;2023-05-16T00:36:51;14.77;;;3.00;;
37349;SDS011;23231;52.358;4.926;2023-05-16T00:41:52;13.48;;;2.88;;
37349;SDS011;23231;52.358;4.926;2023-05-16T00:46:53;13.23;;;2.20;;
37349;SDS011;23231;52.358;4.926;2023-05-16T00:51:53;12.32;;;2.20;;
37349;SDS011;23231;52.358;4.926;2023-05-16T00:56:55;14.82;;;2.33;;
37349;SDS011;23231;52.358;4.926;2023-05-16T01:01:55;10.35;;;2.22;;
37349;SDS011;23231;52.358;4.926;2023-05-16T01:06:56;15.60;;;2.40;;
37349;SDS011;23231;52.358;4.926;2023-05-16T01:17:37;13.23;;;2.28;;
37349;SDS011;23231;52.358;4.926;2023-05-16T01:27:46;12.27;;;2.55;;
37349;SDS011;23231;52.358;4.926;2023-05-16T01:32:47;9.30;;;2.10;;
37349;SDS011;23231;52.358;4.926;2023-05-16T01:37:49;12.38;;;2.22;;
37349;SDS011;23231;52.358;4.926;2023-05-16T01:42:53;10.75;;;2.80;;
37349;SDS011;23231;52.358;4.926;2023-05-16T01:47:57;11.20;;;2.20;;
37349;SDS011;23231;52.358;4.926;2023-05-16T01:53:05;11.13;;;2.60;;
37349;SDS011;23231;52.358;4.926;2023-05-16T01:58:08;13.15;;;3.15;;
37349;SDS011;23231;52.358;4.926;2023-05-16T02:03:09;12.15;;;3.00;;
37349;SDS011;23231;52.358;4.926;2023-05-16T02:08:10;12.23;;;2.42;;
37349;SDS011;23231;52.358;4.926;2023-05-16T02:13:10;8.45;;;2.47;;
37349;SDS011;23231;52.358;4.926;2023-05-16T02:18:11;9.77;;;2.72;;
37349;SDS011;23231;52.358;4.926;2023-05-16T02:23:12;10.52;;;2.03;;
37349;SDS011;23231;52.358;4.926;2023-05-16T02:28:12;13.30;;;2.60;;
37349;SDS011;23231;52.358;4.926;2023-05-16T02:33:12;15.55;;;2.60;;
37349;SDS011;23231;52.358;4.926;2023-05-16T02:38:13;9.07;;;2.20;;
37349;SDS011;23231;52.358;4.926;2023-05-16T02:43:16;9.00;;;2.10;;
37349;SDS011;23231;52.358;4.926;2023-05-16T02:48:16;16.23;;;2.60;;
37349;SDS011;23231;52.358;4.926;2023-05-16T02:53:17;12.18;;;2.83;;
37349;SDS011;23231;52.358;4.926;2023-05-16T02:58:17;8.70;;;2.40;;
37349;SDS011;23231;52.358;4.926;2023-05-16T03:03:17;16.88;;;4.22;;
37349;SDS011;23231;52.358;4.926;2023-05-16T03:08:18;19.15;;;5.00;;
37349;SDS011;23231;52.358;4.926;2023-05-16T03:13:18;12.57;;;3.90;;
37349;SDS011;23231;52.358;4.926;2023-05-16T03:18:19;10.40;;;2.60;;
37349;SDS011;23231;52.358;4.926;2023-05-16T03:23:20;8.30;;;2.22;;
37349;SDS011;23231;52.358;4.926;2023-05-16T03:28:20;8.63;;;2.65;;
37349;SDS011;23231;52.358;4.926;2023-05-16T03:33:21;12.73;;;3.78;;
37349;SDS011;23231;52.358;4.926;2023-05-16T03:38:22;13.13;;;4.07;;
37349;SDS011;23231;52.358;4.926;2023-05-16T03:43:23;16.10;;;3.85;;
37349;SDS011;23231;52.358;4.926;2023-05-16T03:48:23;9.18;;;4.15;;
37349;SDS011;23231;52.358;4.926;2023-05-16T03:53:24;16.92;;;3.83;;
37349;SDS011;23231;52.358;4.926;2023-05-16T03:58:24;14.68;;;4.40;;
37349;SDS011;23231;52.358;4.926;2023-05-16T04:03:25;17.40;;;4.15;;
37349;SDS011;23231;52.358;4.926;2023-05-16T04:08:27;13.13;;;4.10;;
37349;SDS011;23231;52.358;4.926;2023-05-16T04:13:27;11.55;;;3.70;;
37349;SDS011;23231;52.358;4.926;2023-05-16T04:18:28;13.40;;;3.25;;
37349;SDS011;23231;52.358;4.926;2023-05-16T04:23:28;14.48;;;2.75;;
37349;SDS011;23231;52.358;4.926;2023-05-16T04:28:29;10.90;;;2.22;;
37349;SDS011;23231;52.358;4.926;2023-05-16T04:33:29;12.15;;;2.20;;
37349;SDS011;23231;52.358;4.926;2023-05-16T04:38:29;14.90;;;3.28;;
37349;SDS011;23231;52.358;4.926;2023-05-16T04:43:30;9.05;;;2.08;;
37349;SDS011;23231;52.358;4.926;2023-05-16T04:48:31;7.90;;;1.90;;
37349;SDS011;23231;52.358;4.926;2023-05-16T04:53:32;11.35;;;2.55;;
37349;SDS011;23231;52.358;4.926;2023-05-16T04:58:32;14.48;;;2.42;;
37349;SDS011;23231;52.358;4.926;2023-05-16T05:03:32;8.98;;;2.13;;
37349;SDS011;23231;52.358;4.926;2023-05-16T05:08:33;10.50;;;2.10;;
37349;SDS011;23231;52.358;4.926;2023-05-16T05:13:33;8.77;;;1.90;;
37349;SDS011;23231;52.358;4.926;2023-05-16T05:18:34;9.32;;;2.22;;
37349;SDS011;23231;52.358;4.926;2023-05-16T05:23:34;8.43;;;1.75;;
37349;SDS011;23231;52.358;4.926;2023-05-16T05:28:34;8.10;;;1.80;;
37349;SDS011;23231;52.358;4.926;2023-05-16T05:33:36;7.78;;;1.65;;
37349;SDS011;23231;52.358;4.926;2023-05-16T05:38:37;12.00;;;1.88;;
37349;SDS011;23231;52.358;4.926;2023-05-16T05:43:37;6.90;;;1.60;;
37349;SDS011;23231;52.358;4.926;2023-05-16T05:48:37;6.80;;;1.70;;
37349;SDS011;23231;52.358;4.926;2023-05-16T05:53:39;10.18;;;1.55;;
37349;SDS011;23231;52.358;4.926;2023-05-16T05:58:40;6.82;;;1.60;;
37349;SDS011;23231;52.358;4.926;2023-05-16T06:03:43;7.05;;;2.00;;
37349;SDS011;23231;52.358;4.926;2023-05-16T06:08:43;5.63;;;1.35;;
37349;SDS011;23231;52.358;4.926;2023-05-16T06:13:44;7.60;;;1.70;;
37349;SDS011;23231;52.358;4.926;2023-05-16T06:18:44;8.25;;;1.52;;
37349;SDS011;23231;52.358;4.926;2023-05-16T06:23:45;8.15;;;1.67;;
37349;SDS011;23231;52.358;4.926;2023-05-16T06:28:45;7.88;;;1.60;;
37349;SDS011;23231;52.358;4.926;2023-05-16T06:33:45;9.75;;;1.70;;
37349;SDS011;23231;52.358;4.926;2023-05-16T06:38:46;6.65;;;1.40;;
37349;SDS011;23231;52.358;4.926;2023-05-16T06:43:46;10.32;;;1.52;;
37349;SDS011;23231;52.358;4.926;2023-05-16T06:48:47;12.07;;;2.40;;
37349;SDS011;23231;52.358;4.926;2023-05-16T06:53:47;6.72;;;1.60;;
37349;SDS011;23231;52.358;4.926;2023-05-16T06:58:48;6.68;;;1.60;;
37349;SDS011;23231;52.358;4.926;2023-05-16T07:03:49;5.53;;;1.33;;
37349;SDS011;23231;52.358;4.926;2023-05-16T07:08:50;8.35;;;1.52;;
37349;SDS011;23231;52.358;4.926;2023-05-16T07:13:50;6.95;;;1.42;;
37349;SDS011;23231;52.358;4.926;2023-05-16T07:18:51;5.63;;;1.38;;
37349;SDS011;23231;52.358;4.926;2023-05-16T07:23:51;5.57;;;1.17;;
37349;SDS011;23231;52.358;4.926;2023-05-16T07:28:52;8.32;;;1.50;;
37349;SDS011;23231;52.358;4.926;2023-05-16T07:33:52;8.38;;;1.40;;
37349;SDS011;23231;52.358;4.926;2023-05-16T07:38:52;6.22;;;1.38;;
37349;SDS011;23231;52.358;4.926;2023-05-16T07:43:53;8.80;;;2.45;;
37349;SDS011;23231;52.358;4.926;2023-05-16T07:48:53;7.72;;;1.50;;
37349;SDS011;23231;52.358;4.926;2023-05-16T07:53:54;8.18;;;1.20;;
37349;SDS011;23231;52.358;4.926;2023-05-16T07:58:54;7.75;;;1.20;;
37349;SDS011;23231;52.358;4.926;2023-05-16T08:03:55;7.43;;;1.80;;
37349;SDS011;23231;52.358;4.926;2023-05-16T08:08:55;9.30;;;1.33;;
37349;SDS011;23231;52.358;4.926;2023-05-16T08:13:55;7.22;;;1.27;;
37349;SDS011;23231;52.358;4.926;2023-05-16T08:18:56;8.20;;;1.58;;
37349;SDS011;23231;52.358;4.926;2023-05-16T08:23:56;8.20;;;1.52;;
37349;SDS011;23231;52.358;4.926;2023-05-16T08:28:57;11.50;;;1.90;;
37349;SDS011;23231;52.358;4.926;2023-05-16T08:33:57;8.25;;;1.60;;
37349;SDS011;23231;52.358;4.926;2023-05-16T08:38:57;3.67;;;1.08;;
37349;SDS011;23231;52.358;4.926;2023-05-16T08:43:58;7.43;;;1.13;;
37349;SDS011;23231;52.358;4.926;2023-05-16T08:48:59;6.38;;;1.50;;
37349;SDS011;23231;52.358;4.926;2023-05-16T08:54:02;8.95;;;1.65;;
37349;SDS011;23231;52.358;4.926;2023-05-16T08:59:03;6.57;;;1.48;;
37349;SDS011;23231;52.358;4.926;2023-05-16T09:04:05;8.73;;;1.80;;
37349;SDS011;23231;52.358;4.926;2023-05-16T09:09:06;6.65;;;1.20;;
37349;SDS011;23231;52.358;4.926;2023-05-16T09:14:09;6.90;;;1.35;;
37349;SDS011;23231;52.358;4.926;2023-05-16T09:19:11;8.98;;;1.40;;
37349;SDS011;23231;52.358;4.926;2023-05-16T09:24:12;10.00;;;1.60;;
37349;SDS011;23231;52.358;4.926;2023-05-16T09:29:13;7.30;;;1.50;;
37349;SDS011;23231;52.358;4.926;2023-05-16T09:34:13;8.50;;;1.20;;
37349;SDS011;23231;52.358;4.926;2023-05-16T09:39:14;7.90;;;1.35;;
37349;SDS011;23231;52.358;4.926;2023-05-16T09:44:15;6.18;;;1.30;;
37349;SDS011;23231;52.358;4.926;2023-05-16T09:49:17;4.57;;;1.17;;
37349;SDS011;23231;52.358;4.926;2023-05-16T09:54:37;4.72;;;1.00;;
37349;SDS011;23231;52.358;4.926;2023-05-16T09:59:37;6.07;;;0.93;;
37349;SDS011;23231;52.358;4.926;2023-05-16T10:04:38;6.60;;;1.70;;
37349;SDS011;23231;52.358;4.926;2023-05-16T10:09:39;7.38;;;1.20;;
37349;SDS011;23231;52.358;4.926;2023-05-16T10:14:40;6.15;;;1.10;;
37349;SDS011;23231;52.358;4.926;2023-05-16T10:19:40;4.32;;;1.10;;
37349;SDS011;23231;52.358;4.926;2023-05-16T10:24:42;5.78;;;1.60;;
37349;SDS011;23231;52.358;4.926;2023-05-16T10:29:45;8.57;;;1.45;;
37349;SDS011;23231;52.358;4.926;2023-05-16T10:34:46;5.50;;;1.05;;
37349;SDS011;23231;52.358;4.926;2023-05-16T10:39:46;5.93;;;1.23;;
37349;SDS011;23231;52.358;4.926;2023-05-16T10:44:47;5.95;;;1.20;;
37349;SDS011;23231;52.358;4.926;2023-05-16T10:49:47;6.22;;;1.30;;
37349;SDS011;23231;52.358;4.926;2023-05-16T10:54:51;3.38;;;1.25;;
37349;SDS011;23231;52.358;4.926;2023-05-16T10:59:51;4.97;;;1.30;;
37349;SDS011;23231;52.358;4.926;2023-05-16T11:04:54;6.93;;;1.30;;
37349;SDS011;23231;52.358;4.926;2023-05-16T11:10:03;7.60;;;1.30;;
37349;SDS011;23231;52.358;4.926;2023-05-16T11:20:29;9.40;;;1.60;;
37349;SDS011;23231;52.358;4.926;2023-05-16T11:25:35;6.57;;;1.20;;
37349;SDS011;23231;52.358;4.926;2023-05-16T11:30:43;6.47;;;1.30;;
37349;SDS011;23231;52.358;4.926;2023-05-16T11:41:05;6.28;;;1.30;;
37349;SDS011;23231;52.358;4.926;2023-05-16T11:46:11;6.18;;;1.10;;
37349;SDS011;23231;52.358;4.926;2023-05-16T11:51:12;6.47;;;1.33;;
37349;SDS011;23231;52.358;4.926;2023-05-16T11:56:17;6.63;;;1.10;;
37349;SDS011;23231;52.358;4.926;2023-05-16T12:01:21;9.63;;;1.30;;
37349;SDS011;23231;52.358;4.926;2023-05-16T12:06:22;8.20;;;1.50;;
37349;SDS011;23231;52.358;4.926;2023-05-16T12:11:23;5.45;;;1.30;;
37349;SDS011;23231;52.358;4.926;2023-05-16T12:16:23;7.53;;;1.40;;
37349;SDS011;23231;52.358;4.926;2023-05-16T12:21:23;5.68;;;1.45;;
37349;SDS011;23231;52.358;4.926;2023-05-16T12:26:25;6.90;;;1.30;;
37349;SDS011;23231;52.358;4.926;2023-05-16T12:31:34;4.43;;;1.15;;
37349;SDS011;23231;52.358;4.926;2023-05-16T12:36:35;5.05;;;1.52;;
37349;SDS011;23231;52.358;4.926;2023-05-16T12:41:38;9.77;;;1.92;;
37349;SDS011;23231;52.358;4.926;2023-05-16T12:46:48;5.57;;;1.30;;
37349;SDS011;23231;52.358;4.926;2023-05-16T12:51:51;6.30;;;1.27;;
37349;SDS011;23231;52.358;4.926;2023-05-16T12:56:52;7.10;;;1.30;;
37349;SDS011;23231;52.358;4.926;2023-05-16T13:01:52;5.78;;;1.48;;
37349;SDS011;23231;52.358;4.926;2023-05-16T13:06:53;4.00;;;1.10;;
37349;SDS011;23231;52.358;4.926;2023-05-16T13:11:53;8.10;;;1.52;;
37349;SDS011;23231;52.358;4.926;2023-05-16T13:16:54;4.63;;;1.30;;
37349;SDS011;23231;52.358;4.926;2023-05-16T13:21:54;8.52;;;1.95;;
37349;SDS011;23231;52.358;4.926;2023-05-16T13:26:55;4.65;;;1.20;;
37349;SDS011;23231;52.358;4.926;2023-05-16T13:31:55;5.50;;;1.33;;
37349;SDS011;23231;52.358;4.926;2023-05-16T13:36:55;6.45;;;1.35;;
37349;SDS011;23231;52.358;4.926;2023-05-16T13:41:56;6.85;;;1.23;;
37349;SDS011;23231;52.358;4.926;2023-05-16T13:46:58;4.65;;;1.20;;
37349;SDS011;23231;52.358;4.926;2023-05-16T13:51:58;5.18;;;1.10;;
37349;SDS011;23231;52.358;4.926;2023-05-16T13:57:00;5.88;;;1.55;;
37349;SDS011;23231;52.358;4.926;2023-05-16T14:02:02;7.55;;;1.60;;
37349;SDS011;23231;52.358;4.926;2023-05-16T14:07:03;6.85;;;1.38;;
37349;SDS011;23231;52.358;4.926;2023-05-16T14:12:04;3.45;;;1.10;;
37349;SDS011;23231;52.358;4.926;2023-05-16T14:17:06;6.78;;;1.90;;
37349;SDS011;23231;52.358;4.926;2023-05-16T14:22:06;7.63;;;1.40;;
37349;SDS011;23231;52.358;4.926;2023-05-16T14:27:07;6.80;;;1.35;;
37349;SDS011;23231;52.358;4.926;2023-05-16T14:32:08;6.55;;;1.73;;
37349;SDS011;23231;52.358;4.926;2023-05-16T14:37:10;5.43;;;1.52;;
37349;SDS011;23231;52.358;4.926;2023-05-16T14:42:10;4.68;;;1.40;;
37349;SDS011;23231;52.358;4.926;2023-05-16T14:47:11;3.72;;;1.63;;
37349;SDS011;23231;52.358;4.926;2023-05-16T14:52:12;5.13;;;1.67;;
37349;SDS011;23231;52.358;4.926;2023-05-16T14:57:13;7.63;;;2.20;;
37349;SDS011;23231;52.358;4.926;2023-05-16T15:02:13;4.05;;;1.58;;
37349;SDS011;23231;52.358;4.926;2023-05-16T15:07:14;6.30;;;2.47;;
37349;SDS011;23231;52.358;4.926;2023-05-16T15:12:14;5.22;;;2.03;;
37349;SDS011;23231;52.358;4.926;2023-05-16T15:17:15;5.07;;;2.38;;
37349;SDS011;23231;52.358;4.926;2023-05-16T15:22:15;6.30;;;2.40;;
37349;SDS011;23231;52.358;4.926;2023-05-16T15:27:16;8.05;;;2.72;;
37349;SDS011;23231;52.358;4.926;2023-05-16T15:32:16;9.40;;;3.30;;
37349;SDS011;23231;52.358;4.926;2023-05-16T15:37:17;9.50;;;3.20;;
37349;SDS011;23231;52.358;4.926;2023-05-16T15:42:17;9.20;;;4.00;;
37349;SDS011;23231;52.358;4.926;2023-05-16T15:47:19;6.25;;;3.35;;
37349;SDS011;23231;52.358;4.926;2023-05-16T15:52:19;9.52;;;3.55;;
37349;SDS011;23231;52.358;4.926;2023-05-16T15:57:19;11.80;;;3.42;;
37349;SDS011;23231;52.358;4.926;2023-05-16T16:02:20;5.63;;;2.25;;
37349;SDS011;23231;52.358;4.926;2023-05-16T16:07:20;4.68;;;2.20;;
37349;SDS011;23231;52.358;4.926;2023-05-16T16:12:22;8.70;;;2.28;;
37349;SDS011;23231;52.358;4.926;2023-05-16T16:17:22;7.78;;;1.90;;
37349;SDS011;23231;52.358;4.926;2023-05-16T16:22:23;7.28;;;1.83;;
37349;SDS011;23231;52.358;4.926;2023-05-16T16:27:23;8.75;;;2.00;;
37349;SDS011;23231;52.358;4.926;2023-05-16T16:32:24;5.97;;;2.53;;
37349;SDS011;23231;52.358;4.926;2023-05-16T16:37:24;6.85;;;1.80;;
37349;SDS011;23231;52.358;4.926;2023-05-16T16:42:25;10.57;;;2.60;;
37349;SDS011;23231;52.358;4.926;2023-05-16T16:47:26;5.65;;;1.90;;
37349;SDS011;23231;52.358;4.926;2023-05-16T16:52:27;9.95;;;2.58;;
37349;SDS011;23231;52.358;4.926;2023-05-16T16:57:27;8.65;;;2.20;;
37349;SDS011;23231;52.358;4.926;2023-05-16T17:02:28;8.25;;;2.10;;
37349;SDS011;23231;52.358;4.926;2023-05-16T17:07:28;5.97;;;1.90;;
37349;SDS011;23231;52.358;4.926;2023-05-16T17:12:29;7.07;;;2.22;;
37349;SDS011;23231;52.358;4.926;2023-05-16T17:17:30;12.82;;;2.50;;
37349;SDS011;23231;52.358;4.926;2023-05-16T17:22:30;12.18;;;1.92;;
37349;SDS011;23231;52.358;4.926;2023-05-16T17:27:31;14.38;;;2.17;;
37349;SDS011;23231;52.358;4.926;2023-05-16T17:32:31;6.43;;;2.00;;
37349;SDS011;23231;52.358;4.926;2023-05-16T17:37:32;9.60;;;2.13;;
37349;SDS011;23231;52.358;4.926;2023-05-16T17:42:33;7.75;;;1.80;;
37349;SDS011;23231;52.358;4.926;2023-05-16T17:47:33;8.70;;;2.25;;
37349;SDS011;23231;52.358;4.926;2023-05-16T17:52:34;7.38;;;2.00;;
37349;SDS011;23231;52.358;4.926;2023-05-16T17:57:34;7.32;;;2.67;;
37349;SDS011;23231;52.358;4.926;2023-05-16T18:02:35;12.18;;;2.22;;
37349;SDS011;23231;52.358;4.926;2023-05-16T18:07:36;10.48;;;1.95;;
37349;SDS011;23231;52.358;4.926;2023-05-16T18:12:37;10.63;;;2.33;;
37349;SDS011;23231;52.358;4.926;2023-05-16T18:17:37;9.98;;;2.38;;
37349;SDS011;23231;52.358;4.926;2023-05-16T18:22:40;9.75;;;2.80;;
37349;SDS011;23231;52.358;4.926;2023-05-16T18:27:40;10.27;;;2.60;;
37349;SDS011;23231;52.358;4.926;2023-05-16T18:32:41;11.15;;;2.50;;
37349;SDS011;23231;52.358;4.926;2023-05-16T18:37:41;10.23;;;2.50;;
37349;SDS011;23231;52.358;4.926;2023-05-16T18:42:42;13.35;;;3.03;;
37349;SDS011;23231;52.358;4.926;2023-05-16T18:47:43;10.27;;;2.65;;
37349;SDS011;23231;52.358;4.926;2023-05-16T18:52:43;15.85;;;2.88;;
37349;SDS011;23231;52.358;4.926;2023-05-16T18:57:47;13.40;;;3.28;;
37349;SDS011;23231;52.358;4.926;2023-05-16T19:02:50;13.93;;;3.08;;
37349;SDS011;23231;52.358;4.926;2023-05-16T19:07:51;11.35;;;2.63;;
37349;SDS011;23231;52.358;4.926;2023-05-16T19:12:51;12.50;;;3.17;;
37349;SDS011;23231;52.358;4.926;2023-05-16T19:17:52;10.88;;;3.25;;
37349;SDS011;23231;52.358;4.926;2023-05-16T19:22:52;15.18;;;3.20;;
37349;SDS011;23231;52.358;4.926;2023-05-16T19:27:52;15.40;;;3.30;;
37349;SDS011;23231;52.358;4.926;2023-05-16T19:32:53;11.45;;;3.63;;
37349;SDS011;23231;52.358;4.926;2023-05-16T19:37:53;10.48;;;2.80;;
37349;SDS011;23231;52.358;4.926;2023-05-16T19:42:54;14.75;;;3.58;;
37349;SDS011;23231;52.358;4.926;2023-05-16T19:47:54;17.10;;;3.72;;
37349;SDS011;23231;52.358;4.926;2023-05-16T19:52:55;17.58;;;4.00;;
37349;SDS011;23231;52.358;4.926;2023-05-16T19:57:56;15.07;;;3.67;;
37349;SDS011;23231;52.358;4.926;2023-05-16T20:02:56;15.93;;;4.82;;
37349;SDS011;23231;52.358;4.926;2023-05-16T20:07:57;15.52;;;4.10;;
37349;SDS011;23231;52.358;4.926;2023-05-16T20:12:57;14.15;;;3.70;;
37349;SDS011;23231;52.358;4.926;2023-05-16T20:17:58;15.30;;;3.50;;
37349;SDS011;23231;52.358;4.926;2023-05-16T20:22:58;16.27;;;3.78;;
37349;SDS011;23231;52.358;4.926;2023-05-16T20:27:58;20.33;;;4.53;;
37349;SDS011;23231;52.358;4.926;2023-05-16T20:32:59;19.27;;;4.53;;
37349;SDS011;23231;52.358;4.926;2023-05-16T20:37:59;18.48;;;4.30;;
37349;SDS011;23231;52.358;4.926;2023-05-16T20:43:00;20.85;;;4.53;;
37349;SDS011;23231;52.358;4.926;2023-05-16T20:48:00;13.35;;;4.60;;
37349;SDS011;23231;52.358;4.926;2023-05-16T20:53:01;17.67;;;4.47;;
37349;SDS011;23231;52.358;4.926;2023-05-16T20:58:02;15.88;;;4.10;;
37349;SDS011;23231;52.358;4.926;2023-05-16T21:03:02;17.02;;;4.25;;
37349;SDS011;23231;52.358;4.926;2023-05-16T21:08:03;13.02;;;4.22;;
37349;SDS011;23231;52.358;4.926;2023-05-16T21:13:03;21.92;;;5.05;;
37349;SDS011;23231;52.358;4.926;2023-05-16T21:18:04;22.40;;;5.80;;
37349;SDS011;23231;52.358;4.926;2023-05-16T21:23:05;21.65;;;5.07;;
37349;SDS011;23231;52.358;4.926;2023-05-16T21:28:05;19.13;;;4.55;;
37349;SDS011;23231;52.358;4.926;2023-05-16T21:33:06;15.52;;;4.35;;
37349;SDS011;23231;52.358;4.926;2023-05-16T21:38:06;22.13;;;4.90;;
37349;SDS011;23231;52.358;4.926;2023-05-16T21:43:07;13.43;;;4.03;;
37349;SDS011;23231;52.358;4.926;2023-05-16T21:48:07;20.98;;;4.88;;
37349;SDS011;23231;52.358;4.926;2023-05-16T21:53:08;20.38;;;4.38;;
37349;SDS011;23231;52.358;4.926;2023-05-16T21:58:08;18.15;;;4.82;;
37349;SDS011;23231;52.358;4.926;2023-05-16T22:03:09;18.00;;;4.60;;
37349;SDS011;23231;52.358;4.926;2023-05-16T22:08:12;14.48;;;4.32;;
37349;SDS011;23231;52.358;4.926;2023-05-16T22:13:13;15.40;;;4.47;;
37349;SDS011;23231;52.358;4.926;2023-05-16T22:18:13;21.35;;;5.20;;
37349;SDS011;23231;52.358;4.926;2023-05-16T22:23:13;19.63;;;5.90;;
37349;SDS011;23231;52.358;4.926;2023-05-16T22:28:14;19.35;;;4.30;;
37349;SDS011;23231;52.358;4.926;2023-05-16T22:33:14;23.40;;;5.72;;
37349;SDS011;23231;52.358;4.926;2023-05-16T22:38:15;18.00;;;4.05;;
37349;SDS011;23231;52.358;4.926;2023-05-16T22:43:15;14.32;;;4.63;;
37349;SDS011;23231;52.358;4.926;2023-05-16T22:48:16;16.48;;;3.85;;
37349;SDS011;23231;52.358;4.926;2023-05-16T22:53:16;17.35;;;4.85;;
37349;SDS011;23231;52.358;4.926;2023-05-16T22:58:16;16.40;;;4.60;;
37349;SDS011;23231;52.358;4.926;2023-05-16T23:03:17;18.98;;;4.45;;
37349;SDS011;23231;52.358;4.926;2023-05-16T23:08:17;14.98;;;4.32;;
37349;SDS011;23231;52.358;4.926;2023-05-16T23:13:17;19.35;;;4.68;;
37349;SDS011;23231;52.358;4.926;2023-05-16T23:18:18;24.13;;;5.80;;
37349;SDS011;23231;52.358;4.926;2023-05-16T23:23:18;18.98;;;4.95;;
37349;SDS011;23231;52.358;4.926;2023-05-16T23:28:19;17.23;;;5.47;;
37349;SDS011;23231;52.358;4.926;2023-05-16T23:33:20;18.85;;;4.78;;
37349;SDS011;23231;52.358;4.926;2023-05-16T23:38:21;29.20;;;5.95;;
37349;SDS011;23231;52.358;4.926;2023-05-16T23:43:21;16.17;;;5.65;;
37349;SDS011;23231;52.358;4.926;2023-05-16T23:48:22;22.23;;;6.13;;
37349;SDS011;23231;52.358;4.926;2023-05-16T23:53:22;24.70;;;5.60;;
37349;SDS011;23231;52.358;4.926;2023-05-16T23:58:27;17.70;;;5.35;;
